sensor_id;sensor_type;location;lat;lon;timestamp;temperature;humidity
3202;DHT22;34843;48.744;8.958;2023-12-28T00:00:16;3.00;99.90
3202;DHT22;34843;48.744;8.958;2023-12-28T00:02:42;3.00;99.90
3202;DHT22;34843;48.744;8.958;2023-12-28T00:05:07;3.10;99.90
3202;DHT22;34843;48.744;8.958;2023-12-28T00:07:33;3.10;99.90
3202;DHT22;34843;48.744;8.958;2023-12-28T00:09:58;3.20;99.90
3202;DHT22;34843;48.744;8.958;2023-12-28T00:12:24;3.30;99.90
3202;DHT22;34843;48.744;8.958;2023-12-28T00:14:50;3.30;99.90
3202;DHT22;34843;48.744;8.958;2023-12-28T00:17:15;3.30;99.90
3202;DHT22;34843;48.744;8.958;2023-12-28T00:19:41;3.30;99.90
3202;DHT22;34843;48.744;8.958;2023-12-28T00:22:06;3.30;99.90
3202;DHT22;34843;48.744;8.958;2023-12-28T00:24:32;3.20;99.90
3202;DHT22;34843;48.744;8.958;2023-12-28T00:26:57;3.10;99.90
3202;DHT22;34843;48.744;8.958;2023-12-28T00:29:22;3.10;99.90
3202;DHT22;34843;48.744;8.958;2023-12-28T00:31:48;3.10;99.90
3202;DHT22;34843;48.744;8.958;2023-12-28T00:34:13;2.90;99.90
3202;DHT22;34843;48.744;8.958;2023-12-28T00:36:39;2.90;99.90
3202;DHT22;34843;48.744;8.958;2023-12-28T00:39:04;2.80;99.90
3202;DHT22;34843;48.744;8.958;2023-12-28T00:41:30;2.80;99.90
3202;DHT22;34843;48.744;8.958;2023-12-28T00:43:55;2.90;99.90
3202;DHT22;34843;48.744;8.958;2023-12-28T00:46:21;2.90;99.90
3202;DHT22;34843;48.744;8.958;2023-12-28T00:48:46;2.90;99.90
3202;DHT22;34843;48.744;8.958;2023-12-28T00:51:12;3.00;99.90
3202;DHT22;34843;48.744;8.958;2023-12-28T00:53:37;2.90;99.90
3202;DHT22;34843;48.744;8.958;2023-12-28T00:56:03;3.00;99.90
3202;DHT22;34843;48.744;8.958;2023-12-28T00:58:29;3.00;99.90
3202;DHT22;34843;48.744;8.958;2023-12-28T01:00:54;3.10;99.90
3202;DHT22;34843;48.744;8.958;2023-12-28T01:03:22;3.00;99.90
3202;DHT22;34843;48.744;8.958;2023-12-28T01:05:47;3.10;99.90
3202;DHT22;34843;48.744;8.958;2023-12-28T01:08:16;3.00;99.90
3202;DHT22;34843;48.744;8.958;2023-12-28T01:10:42;3.00;99.90
3202;DHT22;34843;48.744;8.958;2023-12-28T01:13:07;3.00;99.90
3202;DHT22;34843;48.744;8.958;2023-12-28T01:15:33;2.90;99.90
3202;DHT22;34843;48.744;8.958;2023-12-28T01:17:58;2.80;99.90
3202;DHT22;34843;48.744;8.958;2023-12-28T01:20:24;2.80;99.90
3202;DHT22;34843;48.744;8.958;2023-12-28T01:22:49;2.60;99.90
3202;DHT22;34843;48.744;8.958;2023-12-28T01:25:15;2.50;99.90
3202;DHT22;34843;48.744;8.958;2023-12-28T01:27:41;2.40;99.90
3202;DHT22;34843;48.744;8.958;2023-12-28T01:30:07;2.30;99.90
3202;DHT22;34843;48.744;8.958;2023-12-28T01:32:32;2.20;99.90
3202;DHT22;34843;48.744;8.958;2023-12-28T01:34:58;2.10;99.90
3202;DHT22;34843;48.744;8.958;2023-12-28T01:37:23;2.10;99.90
3202;DHT22;34843;48.744;8.958;2023-12-28T01:39:49;2.10;99.90
3202;DHT22;34843;48.744;8.958;2023-12-28T01:42:14;2.00;99.90
3202;DHT22;34843;48.744;8.958;2023-12-28T01:44:40;1.90;99.90
3202;DHT22;34843;48.744;8.958;2023-12-28T01:47:06;1.90;99.90
3202;DHT22;34843;48.744;8.958;2023-12-28T01:49:32;1.80;99.90
3202;DHT22;34843;48.744;8.958;2023-12-28T01:52:00;1.80;99.90
3202;DHT22;34843;48.744;8.958;2023-12-28T01:54:26;1.80;99.90
3202;DHT22;34843;48.744;8.958;2023-12-28T01:56:52;1.80;99.90
3202;DHT22;34843;48.744;8.958;2023-12-28T01:59:17;1.70;99.90
3202;DHT22;34843;48.744;8.958;2023-12-28T02:08:27;1.70;99.90
3202;DHT22;34843;48.744;8.958;2023-12-28T02:10:53;1.70;99.90
3202;DHT22;34843;48.744;8.958;2023-12-28T02:13:20;1.70;99.90
3202;DHT22;34843;48.744;8.958;2023-12-28T02:15:48;1.70;99.90
3202;DHT22;34843;48.744;8.958;2023-12-28T02:18:20;1.70;99.90
3202;DHT22;34843;48.744;8.958;2023-12-28T02:20:48;1.80;99.90
3202;DHT22;34843;48.744;8.958;2023-12-28T02:23:15;1.80;99.90
3202;DHT22;34843;48.744;8.958;2023-12-28T02:25:41;1.80;99.90
3202;DHT22;34843;48.744;8.958;2023-12-28T02:28:07;1.90;99.90
3202;DHT22;34843;48.744;8.958;2023-12-28T02:30:32;1.90;99.90
3202;DHT22;34843;48.744;8.958;2023-12-28T02:33:18;1.90;99.90
3202;DHT22;34843;48.744;8.958;2023-12-28T02:38:19;2.10;99.90
3202;DHT22;34843;48.744;8.958;2023-12-28T02:40:45;2.20;99.90
3202;DHT22;34843;48.744;8.958;2023-12-28T02:43:12;2.70;99.90
3202;DHT22;34843;48.744;8.958;2023-12-28T02:45:38;2.60;99.90
3202;DHT22;34843;48.744;8.958;2023-12-28T02:48:05;2.70;99.90
3202;DHT22;34843;48.744;8.958;2023-12-28T02:50:34;2.70;99.90
3202;DHT22;34843;48.744;8.958;2023-12-28T02:52:59;2.80;99.90
3202;DHT22;34843;48.744;8.958;2023-12-28T02:55:25;2.90;99.90
3202;DHT22;34843;48.744;8.958;2023-12-28T02:57:53;2.90;99.90
3202;DHT22;34843;48.744;8.958;2023-12-28T03:00:24;2.90;99.90
3202;DHT22;34843;48.744;8.958;2023-12-28T03:02:50;2.90;99.90
3202;DHT22;34843;48.744;8.958;2023-12-28T03:05:15;2.80;99.90
3202;DHT22;34843;48.744;8.958;2023-12-28T03:07:41;2.80;99.90
3202;DHT22;34843;48.744;8.958;2023-12-28T03:10:08;3.40;99.90
3202;DHT22;34843;48.744;8.958;2023-12-28T03:12:35;2.90;99.90
3202;DHT22;34843;48.744;8.958;2023-12-28T03:15:00;2.90;99.90
3202;DHT22;34843;48.744;8.958;2023-12-28T03:17:26;2.90;99.90
3202;DHT22;34843;48.744;8.958;2023-12-28T03:19:51;2.90;99.90
3202;DHT22;34843;48.744;8.958;2023-12-28T03:22:17;2.80;99.90
3202;DHT22;34843;48.744;8.958;2023-12-28T03:24:43;2.80;99.90
3202;DHT22;34843;48.744;8.958;2023-12-28T03:27:08;2.80;99.90
3202;DHT22;34843;48.744;8.958;2023-12-28T03:29:34;2.80;99.90
3202;DHT22;34843;48.744;8.958;2023-12-28T03:32:00;2.70;99.90
3202;DHT22;34843;48.744;8.958;2023-12-28T03:34:26;2.90;99.90
3202;DHT22;34843;48.744;8.958;2023-12-28T03:36:52;2.90;99.90
3202;DHT22;34843;48.744;8.958;2023-12-28T03:39:18;3.10;99.90
3202;DHT22;34843;48.744;8.958;2023-12-28T03:41:44;3.30;99.90
3202;DHT22;34843;48.744;8.958;2023-12-28T03:44:09;3.70;99.90
3202;DHT22;34843;48.744;8.958;2023-12-28T03:46:34;3.80;99.90
3202;DHT22;34843;48.744;8.958;2023-12-28T03:49:00;4.00;99.90
3202;DHT22;34843;48.744;8.958;2023-12-28T03:51:26;4.10;99.90
3202;DHT22;34843;48.744;8.958;2023-12-28T03:53:51;4.30;99.90
3202;DHT22;34843;48.744;8.958;2023-12-28T03:56:24;4.30;99.90
3202;DHT22;34843;48.744;8.958;2023-12-28T03:58:50;4.30;99.90
3202;DHT22;34843;48.744;8.958;2023-12-28T04:01:20;4.40;99.90
3202;DHT22;34843;48.744;8.958;2023-12-28T04:03:46;4.40;99.90
3202;DHT22;34843;48.744;8.958;2023-12-28T04:06:12;4.40;99.90
3202;DHT22;34843;48.744;8.958;2023-12-28T04:08:38;4.40;99.90
3202;DHT22;34843;48.744;8.958;2023-12-28T04:11:04;4.40;99.90
3202;DHT22;34843;48.744;8.958;2023-12-28T04:13:30;4.50;99.90
3202;DHT22;34843;48.744;8.958;2023-12-28T04:15:55;4.50;99.90
3202;DHT22;34843;48.744;8.958;2023-12-28T04:18:20;4.60;99.90
3202;DHT22;34843;48.744;8.958;2023-12-28T04:20:47;4.60;99.90
3202;DHT22;34843;48.744;8.958;2023-12-28T04:23:12;4.60;99.90
3202;DHT22;34843;48.744;8.958;2023-12-28T04:25:38;4.60;99.90
3202;DHT22;34843;48.744;8.958;2023-12-28T04:28:03;4.60;99.90
3202;DHT22;34843;48.744;8.958;2023-12-28T04:30:29;4.70;99.90
3202;DHT22;34843;48.744;8.958;2023-12-28T04:32:54;4.80;99.90
3202;DHT22;34843;48.744;8.958;2023-12-28T04:35:20;5.00;99.90
3202;DHT22;34843;48.744;8.958;2023-12-28T04:37:45;5.00;99.90
3202;DHT22;34843;48.744;8.958;2023-12-28T04:40:11;5.00;99.90
3202;DHT22;34843;48.744;8.958;2023-12-28T04:42:36;5.10;99.90
3202;DHT22;34843;48.744;8.958;2023-12-28T04:45:02;5.20;99.90
3202;DHT22;34843;48.744;8.958;2023-12-28T04:47:27;5.20;99.90
3202;DHT22;34843;48.744;8.958;2023-12-28T04:49:53;5.20;99.90
3202;DHT22;34843;48.744;8.958;2023-12-28T04:52:18;5.70;99.90
3202;DHT22;34843;48.744;8.958;2023-12-28T04:54:44;5.30;99.90
3202;DHT22;34843;48.744;8.958;2023-12-28T04:57:09;5.30;99.90
3202;DHT22;34843;48.744;8.958;2023-12-28T04:59:39;5.30;99.90
3202;DHT22;34843;48.744;8.958;2023-12-28T05:02:05;5.40;99.90
3202;DHT22;34843;48.744;8.958;2023-12-28T05:04:30;5.40;99.90
3202;DHT22;34843;48.744;8.958;2023-12-28T05:06:56;5.40;99.90
3202;DHT22;34843;48.744;8.958;2023-12-28T05:09:21;5.50;99.90
3202;DHT22;34843;48.744;8.958;2023-12-28T05:11:47;5.50;99.90
3202;DHT22;34843;48.744;8.958;2023-12-28T05:14:12;5.80;99.90
3202;DHT22;34843;48.744;8.958;2023-12-28T05:16:37;5.80;99.90
3202;DHT22;34843;48.744;8.958;2023-12-28T05:19:03;5.90;99.90
3202;DHT22;34843;48.744;8.958;2023-12-28T05:21:29;5.90;99.90
3202;DHT22;34843;48.744;8.958;2023-12-28T05:23:54;5.90;99.90
3202;DHT22;34843;48.744;8.958;2023-12-28T05:26:20;5.90;99.90
3202;DHT22;34843;48.744;8.958;2023-12-28T05:28:45;5.90;99.90
3202;DHT22;34843;48.744;8.958;2023-12-28T05:31:11;5.90;99.90
3202;DHT22;34843;48.744;8.958;2023-12-28T05:36:05;6.00;99.90
3202;DHT22;34843;48.744;8.958;2023-12-28T05:38:30;6.00;99.90
3202;DHT22;34843;48.744;8.958;2023-12-28T05:40:56;6.10;99.90
3202;DHT22;34843;48.744;8.958;2023-12-28T05:43:22;6.00;99.90
3202;DHT22;34843;48.744;8.958;2023-12-28T05:45:47;6.00;99.90
3202;DHT22;34843;48.744;8.958;2023-12-28T05:48:12;6.00;99.90
3202;DHT22;34843;48.744;8.958;2023-12-28T05:50:38;6.00;99.90
3202;DHT22;34843;48.744;8.958;2023-12-28T05:53:03;6.00;99.90
3202;DHT22;34843;48.744;8.958;2023-12-28T05:55:29;6.10;99.90
3202;DHT22;34843;48.744;8.958;2023-12-28T05:57:54;6.30;99.90
3202;DHT22;34843;48.744;8.958;2023-12-28T06:00:20;6.40;99.90
3202;DHT22;34843;48.744;8.958;2023-12-28T06:02:45;6.60;99.90
3202;DHT22;34843;48.744;8.958;2023-12-28T06:05:12;6.90;99.90
3202;DHT22;34843;48.744;8.958;2023-12-28T06:07:37;7.70;99.90
3202;DHT22;34843;48.744;8.958;2023-12-28T06:10:03;7.40;99.90
3202;DHT22;34843;48.744;8.958;2023-12-28T06:12:29;7.50;99.90
3202;DHT22;34843;48.744;8.958;2023-12-28T06:14:55;7.80;99.90
3202;DHT22;34843;48.744;8.958;2023-12-28T06:17:20;8.20;99.90
3202;DHT22;34843;48.744;8.958;2023-12-28T06:22:12;8.20;99.90
3202;DHT22;34843;48.744;8.958;2023-12-28T06:24:38;8.40;99.90
3202;DHT22;34843;48.744;8.958;2023-12-28T06:27:04;8.50;99.90
3202;DHT22;34843;48.744;8.958;2023-12-28T06:29:30;8.80;99.90
3202;DHT22;34843;48.744;8.958;2023-12-28T06:31:55;9.00;99.90
3202;DHT22;34843;48.744;8.958;2023-12-28T06:34:21;9.00;99.90
3202;DHT22;34843;48.744;8.958;2023-12-28T06:36:46;9.00;99.90
3202;DHT22;34843;48.744;8.958;2023-12-28T06:39:12;9.00;99.90
3202;DHT22;34843;48.744;8.958;2023-12-28T06:41:38;9.10;99.90
3202;DHT22;34843;48.744;8.958;2023-12-28T06:44:03;9.10;99.90
3202;DHT22;34843;48.744;8.958;2023-12-28T06:46:29;9.10;99.90
3202;DHT22;34843;48.744;8.958;2023-12-28T06:48:54;9.10;99.90
3202;DHT22;34843;48.744;8.958;2023-12-28T06:51:20;6.40;99.90
3202;DHT22;34843;48.744;8.958;2023-12-28T06:56:14;9.20;99.90
3202;DHT22;34843;48.744;8.958;2023-12-28T06:58:39;9.30;99.90
3202;DHT22;34843;48.744;8.958;2023-12-28T07:01:05;9.20;99.90
3202;DHT22;34843;48.744;8.958;2023-12-28T07:03:31;9.20;99.90
3202;DHT22;34843;48.744;8.958;2023-12-28T07:05:58;9.20;99.90
3202;DHT22;34843;48.744;8.958;2023-12-28T07:08:24;9.20;99.90
3202;DHT22;34843;48.744;8.958;2023-12-28T07:10:50;9.50;99.90
3202;DHT22;34843;48.744;8.958;2023-12-28T07:13:15;9.40;99.90
3202;DHT22;34843;48.744;8.958;2023-12-28T07:15:40;9.40;99.90
3202;DHT22;34843;48.744;8.958;2023-12-28T07:18:06;9.40;99.90
3202;DHT22;34843;48.744;8.958;2023-12-28T07:20:32;9.40;99.90
3202;DHT22;34843;48.744;8.958;2023-12-28T07:22:57;9.40;99.90
3202;DHT22;34843;48.744;8.958;2023-12-28T07:25:22;9.50;99.90
3202;DHT22;34843;48.744;8.958;2023-12-28T07:27:48;9.60;99.90
3202;DHT22;34843;48.744;8.958;2023-12-28T07:30:14;9.60;99.90
3202;DHT22;34843;48.744;8.958;2023-12-28T07:32:42;9.70;99.90
3202;DHT22;34843;48.744;8.958;2023-12-28T07:35:07;9.70;99.90
3202;DHT22;34843;48.744;8.958;2023-12-28T07:37:33;9.70;99.90
3202;DHT22;34843;48.744;8.958;2023-12-28T07:39:59;9.60;99.90
3202;DHT22;34843;48.744;8.958;2023-12-28T07:42:25;9.60;99.90
3202;DHT22;34843;48.744;8.958;2023-12-28T07:44:50;9.50;99.90
3202;DHT22;34843;48.744;8.958;2023-12-28T07:47:16;9.50;99.90
3202;DHT22;34843;48.744;8.958;2023-12-28T07:49:41;9.40;99.90
3202;DHT22;34843;48.744;8.958;2023-12-28T07:52:07;9.40;99.90
3202;DHT22;34843;48.744;8.958;2023-12-28T07:54:32;9.40;99.90
3202;DHT22;34843;48.744;8.958;2023-12-28T07:56:59;9.40;99.90
3202;DHT22;34843;48.744;8.958;2023-12-28T07:59:25;9.40;99.90
3202;DHT22;34843;48.744;8.958;2023-12-28T08:01:50;9.40;99.90
3202;DHT22;34843;48.744;8.958;2023-12-28T08:04:16;9.40;99.90
3202;DHT22;34843;48.744;8.958;2023-12-28T08:06:41;9.40;99.90
3202;DHT22;34843;48.744;8.958;2023-12-28T08:09:07;9.40;99.90
3202;DHT22;34843;48.744;8.958;2023-12-28T08:11:32;9.40;99.90
3202;DHT22;34843;48.744;8.958;2023-12-28T08:13:58;9.40;99.90
3202;DHT22;34843;48.744;8.958;2023-12-28T08:16:23;9.40;99.90
3202;DHT22;34843;48.744;8.958;2023-12-28T08:18:49;9.30;99.90
3202;DHT22;34843;48.744;8.958;2023-12-28T08:21:14;9.30;99.90
3202;DHT22;34843;48.744;8.958;2023-12-28T08:23:39;9.30;99.90
3202;DHT22;34843;48.744;8.958;2023-12-28T08:26:05;9.30;99.90
3202;DHT22;34843;48.744;8.958;2023-12-28T08:28:32;9.20;99.90
3202;DHT22;34843;48.744;8.958;2023-12-28T08:30:58;9.10;99.90
3202;DHT22;34843;48.744;8.958;2023-12-28T08:33:23;9.20;99.90
3202;DHT22;34843;48.744;8.958;2023-12-28T08:35:49;9.30;99.90
3202;DHT22;34843;48.744;8.958;2023-12-28T08:38:15;9.40;99.90
3202;DHT22;34843;48.744;8.958;2023-12-28T08:40:41;9.50;99.90
3202;DHT22;34843;48.744;8.958;2023-12-28T08:43:07;9.50;99.90
3202;DHT22;34843;48.744;8.958;2023-12-28T08:45:32;9.60;99.90
3202;DHT22;34843;48.744;8.958;2023-12-28T08:47:59;9.70;99.90
3202;DHT22;34843;48.744;8.958;2023-12-28T08:50:25;9.70;99.90
3202;DHT22;34843;48.744;8.958;2023-12-28T08:52:51;9.70;99.90
3202;DHT22;34843;48.744;8.958;2023-12-28T08:55:16;9.80;99.90
3202;DHT22;34843;48.744;8.958;2023-12-28T08:57:41;9.80;99.90
3202;DHT22;34843;48.744;8.958;2023-12-28T09:00:07;9.90;99.90
3202;DHT22;34843;48.744;8.958;2023-12-28T09:02:33;10.00;99.90
3202;DHT22;34843;48.744;8.958;2023-12-28T09:04:58;10.10;99.90
3202;DHT22;34843;48.744;8.958;2023-12-28T09:07:24;10.00;99.90
3202;DHT22;34843;48.744;8.958;2023-12-28T09:09:50;10.10;99.90
3202;DHT22;34843;48.744;8.958;2023-12-28T09:12:15;10.00;99.90
3202;DHT22;34843;48.744;8.958;2023-12-28T09:14:41;10.00;99.90
3202;DHT22;34843;48.744;8.958;2023-12-28T09:17:06;10.00;99.90
3202;DHT22;34843;48.744;8.958;2023-12-28T09:19:32;9.90;99.90
3202;DHT22;34843;48.744;8.958;2023-12-28T09:21:57;10.00;99.90
3202;DHT22;34843;48.744;8.958;2023-12-28T09:24:23;10.20;99.90
3202;DHT22;34843;48.744;8.958;2023-12-28T09:26:48;10.20;99.90
3202;DHT22;34843;48.744;8.958;2023-12-28T09:29:14;10.20;99.90
3202;DHT22;34843;48.744;8.958;2023-12-28T09:31:40;10.40;99.90
3202;DHT22;34843;48.744;8.958;2023-12-28T09:34:05;10.50;99.90
3202;DHT22;34843;48.744;8.958;2023-12-28T09:36:31;10.50;99.90
3202;DHT22;34843;48.744;8.958;2023-12-28T09:38:57;10.50;99.90
3202;DHT22;34843;48.744;8.958;2023-12-28T09:41:26;10.60;99.90
3202;DHT22;34843;48.744;8.958;2023-12-28T09:44:00;10.70;99.90
3202;DHT22;34843;48.744;8.958;2023-12-28T09:46:29;10.70;99.90
3202;DHT22;34843;48.744;8.958;2023-12-28T09:48:57;10.70;99.90
3202;DHT22;34843;48.744;8.958;2023-12-28T09:51:23;10.70;99.90
3202;DHT22;34843;48.744;8.958;2023-12-28T09:53:48;10.70;99.90
3202;DHT22;34843;48.744;8.958;2023-12-28T09:56:14;10.70;99.90
3202;DHT22;34843;48.744;8.958;2023-12-28T09:58:42;10.70;99.90
3202;DHT22;34843;48.744;8.958;2023-12-28T10:01:09;10.80;99.90
3202;DHT22;34843;48.744;8.958;2023-12-28T10:03:34;10.80;99.90
3202;DHT22;34843;48.744;8.958;2023-12-28T10:06:00;10.80;99.90
3202;DHT22;34843;48.744;8.958;2023-12-28T10:08:26;10.80;99.90
3202;DHT22;34843;48.744;8.958;2023-12-28T10:10:52;10.80;99.90
3202;DHT22;34843;48.744;8.958;2023-12-28T10:13:19;10.80;99.90
3202;DHT22;34843;48.744;8.958;2023-12-28T10:15:46;10.80;99.90
3202;DHT22;34843;48.744;8.958;2023-12-28T10:18:11;10.80;99.90
3202;DHT22;34843;48.744;8.958;2023-12-28T10:20:38;10.80;99.90
3202;DHT22;34843;48.744;8.958;2023-12-28T10:23:03;10.80;99.90
3202;DHT22;34843;48.744;8.958;2023-12-28T10:25:31;10.90;99.90
3202;DHT22;34843;48.744;8.958;2023-12-28T10:27:57;10.90;99.90
3202;DHT22;34843;48.744;8.958;2023-12-28T10:30:24;10.90;99.90
3202;DHT22;34843;48.744;8.958;2023-12-28T10:32:49;10.80;99.90
3202;DHT22;34843;48.744;8.958;2023-12-28T10:35:15;10.90;99.90
3202;DHT22;34843;48.744;8.958;2023-12-28T10:37:41;10.90;99.90
3202;DHT22;34843;48.744;8.958;2023-12-28T10:40:08;11.00;99.90
3202;DHT22;34843;48.744;8.958;2023-12-28T10:42:46;11.10;99.90
3202;DHT22;34843;48.744;8.958;2023-12-28T10:45:16;11.10;99.90
3202;DHT22;34843;48.744;8.958;2023-12-28T10:47:52;11.30;99.90
3202;DHT22;34843;48.744;8.958;2023-12-28T10:50:19;11.40;99.90
3202;DHT22;34843;48.744;8.958;2023-12-28T10:52:47;11.60;99.90
3202;DHT22;34843;48.744;8.958;2023-12-28T10:55:30;11.70;99.90
3202;DHT22;34843;48.744;8.958;2023-12-28T11:00:31;11.90;99.90
3202;DHT22;34843;48.744;8.958;2023-12-28T11:03:03;11.90;99.90
3202;DHT22;34843;48.744;8.958;2023-12-28T11:05:33;12.00;99.90
3202;DHT22;34843;48.744;8.958;2023-12-28T11:08:02;12.00;99.90
3202;DHT22;34843;48.744;8.958;2023-12-28T11:10:29;12.10;99.90
3202;DHT22;34843;48.744;8.958;2023-12-28T11:12:57;12.10;99.90
3202;DHT22;34843;48.744;8.958;2023-12-28T11:15:23;12.10;99.90
3202;DHT22;34843;48.744;8.958;2023-12-28T11:17:51;12.20;99.90
3202;DHT22;34843;48.744;8.958;2023-12-28T11:20:17;12.10;99.90
3202;DHT22;34843;48.744;8.958;2023-12-28T11:22:43;12.10;99.90
3202;DHT22;34843;48.744;8.958;2023-12-28T11:25:16;12.00;99.90
3202;DHT22;34843;48.744;8.958;2023-12-28T11:27:42;12.00;99.90
3202;DHT22;34843;48.744;8.958;2023-12-28T11:30:10;11.90;99.90
3202;DHT22;34843;48.744;8.958;2023-12-28T11:32:36;11.70;99.90
3202;DHT22;34843;48.744;8.958;2023-12-28T11:35:02;11.70;99.90
3202;DHT22;34843;48.744;8.958;2023-12-28T11:37:29;11.70;99.90
3202;DHT22;34843;48.744;8.958;2023-12-28T11:39:55;11.70;99.90
3202;DHT22;34843;48.744;8.958;2023-12-28T11:42:23;11.70;99.90
3202;DHT22;34843;48.744;8.958;2023-12-28T11:44:54;11.80;99.90
3202;DHT22;34843;48.744;8.958;2023-12-28T11:47:24;11.90;99.90
3202;DHT22;34843;48.744;8.958;2023-12-28T11:49:50;11.80;99.90
3202;DHT22;34843;48.744;8.958;2023-12-28T11:52:25;11.90;99.90
3202;DHT22;34843;48.744;8.958;2023-12-28T11:54:51;12.00;99.90
3202;DHT22;34843;48.744;8.958;2023-12-28T11:57:16;12.00;99.90
3202;DHT22;34843;48.744;8.958;2023-12-28T11:59:42;12.00;99.90
3202;DHT22;34843;48.744;8.958;2023-12-28T12:02:08;12.00;99.90
3202;DHT22;34843;48.744;8.958;2023-12-28T12:04:34;11.70;99.90
3202;DHT22;34843;48.744;8.958;2023-12-28T12:07:03;11.70;99.90
3202;DHT22;34843;48.744;8.958;2023-12-28T12:09:29;11.70;99.90
3202;DHT22;34843;48.744;8.958;2023-12-28T12:12:00;11.60;99.90
3202;DHT22;34843;48.744;8.958;2023-12-28T12:14:25;11.50;99.90
3202;DHT22;34843;48.744;8.958;2023-12-28T12:16:51;11.50;99.90
3202;DHT22;34843;48.744;8.958;2023-12-28T12:19:18;11.60;99.90
3202;DHT22;34843;48.744;8.958;2023-12-28T12:21:43;11.70;99.90
3202;DHT22;34843;48.744;8.958;2023-12-28T12:24:09;11.70;99.90
3202;DHT22;34843;48.744;8.958;2023-12-28T12:26:35;11.70;99.90
3202;DHT22;34843;48.744;8.958;2023-12-28T12:29:01;11.80;99.90
3202;DHT22;34843;48.744;8.958;2023-12-28T12:31:28;11.80;99.90
3202;DHT22;34843;48.744;8.958;2023-12-28T12:33:53;11.90;99.90
3202;DHT22;34843;48.744;8.958;2023-12-28T12:36:19;11.90;99.90
3202;DHT22;34843;48.744;8.958;2023-12-28T12:38:47;11.90;99.90
3202;DHT22;34843;48.744;8.958;2023-12-28T12:41:12;11.80;99.90
3202;DHT22;34843;48.744;8.958;2023-12-28T12:43:38;11.80;99.90
3202;DHT22;34843;48.744;8.958;2023-12-28T12:46:06;11.70;99.90
3202;DHT22;34843;48.744;8.958;2023-12-28T12:48:31;11.70;99.90
3202;DHT22;34843;48.744;8.958;2023-12-28T12:50:57;11.70;99.90
3202;DHT22;34843;48.744;8.958;2023-12-28T12:53:22;11.70;99.90
3202;DHT22;34843;48.744;8.958;2023-12-28T12:55:48;11.70;99.90
3202;DHT22;34843;48.744;8.958;2023-12-28T12:58:15;11.70;99.90
3202;DHT22;34843;48.744;8.958;2023-12-28T13:00:42;11.60;99.90
3202;DHT22;34843;48.744;8.958;2023-12-28T13:03:08;11.50;99.90
3202;DHT22;34843;48.744;8.958;2023-12-28T13:05:35;11.50;99.90
3202;DHT22;34843;48.744;8.958;2023-12-28T13:08:01;11.50;99.90
3202;DHT22;34843;48.744;8.958;2023-12-28T13:10:26;11.50;99.90
3202;DHT22;34843;48.744;8.958;2023-12-28T13:12:52;11.30;99.90
3202;DHT22;34843;48.744;8.958;2023-12-28T13:15:18;11.30;99.90
3202;DHT22;34843;48.744;8.958;2023-12-28T13:17:44;11.20;99.90
3202;DHT22;34843;48.744;8.958;2023-12-28T13:20:10;11.20;99.90
3202;DHT22;34843;48.744;8.958;2023-12-28T13:22:35;11.10;99.90
3202;DHT22;34843;48.744;8.958;2023-12-28T13:25:01;11.10;99.90
3202;DHT22;34843;48.744;8.958;2023-12-28T13:27:27;11.10;99.90
3202;DHT22;34843;48.744;8.958;2023-12-28T13:29:54;11.10;99.90
3202;DHT22;34843;48.744;8.958;2023-12-28T13:32:20;11.10;99.90
3202;DHT22;34843;48.744;8.958;2023-12-28T13:34:46;11.10;99.90
3202;DHT22;34843;48.744;8.958;2023-12-28T13:37:12;11.10;99.90
3202;DHT22;34843;48.744;8.958;2023-12-28T13:39:38;11.10;99.90
3202;DHT22;34843;48.744;8.958;2023-12-28T13:42:06;11.10;99.90
3202;DHT22;34843;48.744;8.958;2023-12-28T13:44:33;11.10;99.90
3202;DHT22;34843;48.744;8.958;2023-12-28T13:46:58;11.10;99.90
3202;DHT22;34843;48.744;8.958;2023-12-28T13:49:24;11.10;99.90
3202;DHT22;34843;48.744;8.958;2023-12-28T13:51:51;11.00;99.90
3202;DHT22;34843;48.744;8.958;2023-12-28T13:54:17;10.90;99.90
3202;DHT22;34843;48.744;8.958;2023-12-28T13:56:44;10.90;99.90
3202;DHT22;34843;48.744;8.958;2023-12-28T13:59:10;10.90;99.90
3202;DHT22;34843;48.744;8.958;2023-12-28T14:01:36;10.90;99.90
3202;DHT22;34843;48.744;8.958;2023-12-28T14:04:02;10.80;99.90
3202;DHT22;34843;48.744;8.958;2023-12-28T14:06:28;10.80;99.90
3202;DHT22;34843;48.744;8.958;2023-12-28T14:08:54;10.90;99.90
3202;DHT22;34843;48.744;8.958;2023-12-28T14:11:19;10.80;99.90
3202;DHT22;34843;48.744;8.958;2023-12-28T14:13:45;10.70;99.90
3202;DHT22;34843;48.744;8.958;2023-12-28T14:16:10;10.70;99.90
3202;DHT22;34843;48.744;8.958;2023-12-28T14:18:36;10.60;99.90
3202;DHT22;34843;48.744;8.958;2023-12-28T14:21:02;10.60;99.90
3202;DHT22;34843;48.744;8.958;2023-12-28T14:23:29;10.60;99.90
3202;DHT22;34843;48.744;8.958;2023-12-28T14:25:55;10.50;99.90
3202;DHT22;34843;48.744;8.958;2023-12-28T14:28:21;10.50;99.90
3202;DHT22;34843;48.744;8.958;2023-12-28T14:30:49;10.50;99.90
3202;DHT22;34843;48.744;8.958;2023-12-28T14:33:15;10.50;99.90
3202;DHT22;34843;48.744;8.958;2023-12-28T14:35:40;10.50;99.90
3202;DHT22;34843;48.744;8.958;2023-12-28T14:38:06;10.50;99.90
3202;DHT22;34843;48.744;8.958;2023-12-28T14:40:33;10.50;99.90
3202;DHT22;34843;48.744;8.958;2023-12-28T14:42:59;10.60;99.90
3202;DHT22;34843;48.744;8.958;2023-12-28T14:45:24;10.60;99.90
3202;DHT22;34843;48.744;8.958;2023-12-28T14:47:50;10.60;99.90
3202;DHT22;34843;48.744;8.958;2023-12-28T14:50:15;10.60;99.90
3202;DHT22;34843;48.744;8.958;2023-12-28T14:52:41;10.60;99.90
3202;DHT22;34843;48.744;8.958;2023-12-28T14:55:08;10.60;99.90
3202;DHT22;34843;48.744;8.958;2023-12-28T14:57:34;10.60;99.90
3202;DHT22;34843;48.744;8.958;2023-12-28T15:00:00;10.60;99.90
3202;DHT22;34843;48.744;8.958;2023-12-28T15:02:25;10.60;99.90
3202;DHT22;34843;48.744;8.958;2023-12-28T15:04:51;10.50;99.90
3202;DHT22;34843;48.744;8.958;2023-12-28T15:07:16;10.50;99.90
3202;DHT22;34843;48.744;8.958;2023-12-28T15:09:42;10.50;99.90
3202;DHT22;34843;48.744;8.958;2023-12-28T15:12:08;10.40;99.90
3202;DHT22;34843;48.744;8.958;2023-12-28T15:14:33;10.20;99.90
3202;DHT22;34843;48.744;8.958;2023-12-28T15:16:59;10.20;99.90
3202;DHT22;34843;48.744;8.958;2023-12-28T15:19:25;10.10;99.90
3202;DHT22;34843;48.744;8.958;2023-12-28T15:21:52;10.10;99.90
3202;DHT22;34843;48.744;8.958;2023-12-28T15:24:17;10.00;99.90
3202;DHT22;34843;48.744;8.958;2023-12-28T15:26:44;10.00;99.90
3202;DHT22;34843;48.744;8.958;2023-12-28T15:29:09;9.90;99.90
3202;DHT22;34843;48.744;8.958;2023-12-28T15:31:35;9.90;99.90
3202;DHT22;34843;48.744;8.958;2023-12-28T15:34:00;9.80;99.90
3202;DHT22;34843;48.744;8.958;2023-12-28T15:36:26;9.80;99.90
3202;DHT22;34843;48.744;8.958;2023-12-28T15:38:51;9.80;99.90
3202;DHT22;34843;48.744;8.958;2023-12-28T15:41:17;9.80;99.90
3202;DHT22;34843;48.744;8.958;2023-12-28T15:43:42;9.70;99.90
3202;DHT22;34843;48.744;8.958;2023-12-28T15:46:08;9.90;99.90
3202;DHT22;34843;48.744;8.958;2023-12-28T15:48:33;6.80;99.90
3202;DHT22;34843;48.744;8.958;2023-12-28T15:50:59;9.70;99.90
3202;DHT22;34843;48.744;8.958;2023-12-28T15:53:24;9.60;99.90
3202;DHT22;34843;48.744;8.958;2023-12-28T15:55:50;9.60;99.90
3202;DHT22;34843;48.744;8.958;2023-12-28T15:58:15;9.70;99.90
3202;DHT22;34843;48.744;8.958;2023-12-28T16:00:41;9.50;99.90
3202;DHT22;34843;48.744;8.958;2023-12-28T16:03:09;9.30;99.90
3202;DHT22;34843;48.744;8.958;2023-12-28T16:05:34;9.30;99.90